RJOP(METAR)
02/28 07:00
METAR RJOP 272200Z 30011KT 9999 FEW030 04/M01 Q1026 RMK 1CU030
A3031=
戻る
トップページへ戻る
IMOC Co,.Ltd.